Time;durP1;ratioP1;P1;durP2;ratioP2;P2;SDS_P1;SDS_P2;PMS_P1;PMS_P2;Temp;Humidity;BMP_temperature;BMP_pressure;BME280_temperature;BME280_humidity;BME280_pressure;Samples;Min_cycle;Max_cycle;Signal;HPM_P1;HPM_P2
2024/02/06 00:00:15;;;;;;;1.65;0.90;;;19.90;54.90;;;;;;5020463;28;20048;-65
2024/02/06 00:02:40;;;;;;;1.65;0.68;;;19.80;55.00;;;;;;5019742;28;20480;-64
2024/02/06 00:05:06;;;;;;;2.38;0.85;;;19.80;55.00;;;;;;5021484;28;20079;-65
2024/02/06 00:07:33;;;;;;;2.03;0.93;;;19.70;55.10;;;;;;5019828;28;20412;-65
2024/02/06 00:09:59;;;;;;;1.08;0.75;;;19.70;55.20;;;;;;5020653;28;20041;-65
2024/02/06 00:12:24;;;;;;;1.58;0.70;;;19.70;55.40;;;;;;5020436;28;20026;-65
2024/02/06 00:14:50;;;;;;;1.33;0.98;;;19.60;55.40;;;;;;5006867;28;20591;-65
2024/02/06 00:17:15;;;;;;;2.53;0.93;;;19.60;55.60;;;;;;5020495;28;20025;-64
2024/02/06 00:19:41;;;;;;;1.38;0.73;;;19.50;55.60;;;;;;5020149;28;20424;-64
2024/02/06 00:22:07;;;;;;;1.00;0.73;;;19.50;55.70;;;;;;5023503;28;20508;-65
2024/02/06 00:24:33;;;;;;;1.23;0.80;;;19.50;55.80;;;;;;5019427;28;20386;-64
2024/02/06 00:26:59;;;;;;;1.65;0.80;;;19.50;55.80;;;;;;5020603;28;20026;-65
2024/02/06 00:29:25;;;;;;;2.22;0.90;;;19.40;55.80;;;;;;5018367;28;20044;-65
2024/02/06 00:31:51;;;;;;;2.15;0.68;;;19.40;55.90;;;;;;5019707;28;20064;-65
2024/02/06 00:34:18;;;;;;;2.15;0.75;;;19.30;55.90;;;;;;5020488;28;20053;-65
2024/02/06 00:36:44;;;;;;;1.30;0.80;;;19.40;56.10;;;;;;5023360;28;20092;-64
2024/02/06 00:39:10;;;;;;;2.28;1.00;;;19.30;56.00;;;;;;5020304;28;20424;-65
2024/02/06 00:41:35;;;;;;;1.35;0.77;;;19.30;56.10;;;;;;5021842;28;20639;-64
2024/02/06 00:44:00;;;;;;;1.85;0.93;;;19.30;56.20;;;;;;5020480;28;20025;-65
2024/02/06 00:46:26;;;;;;;1.35;0.93;;;19.30;56.20;;;;;;5022032;28;20064;-65
2024/02/06 00:48:53;;;;;;;1.95;1.08;;;19.20;56.20;;;;;;5019244;28;20047;-65
2024/02/06 00:51:19;;;;;;;2.45;0.80;;;19.20;56.20;;;;;;5018292;28;20021;-65
2024/02/06 00:53:45;;;;;;;2.83;1.13;;;19.20;56.30;;;;;;5018738;28;20092;-65
2024/02/06 00:56:10;;;;;;;2.28;1.00;;;19.20;56.30;;;;;;5021257;28;20045;-64
2024/02/06 00:58:36;;;;;;;1.95;0.93;;;19.10;56.30;;;;;;5021675;28;21045;-64
2024/02/06 01:01:01;;;;;;;1.40;0.90;;;19.20;56.40;;;;;;5018319;28;20094;-65
2024/02/06 01:03:27;;;;;;;1.70;1.02;;;19.10;56.40;;;;;;5024116;28;20117;-64
2024/02/06 01:05:52;;;;;;;1.33;0.75;;;19.10;56.40;;;;;;5023648;28;20091;-64
2024/02/06 01:08:19;;;;;;;2.00;0.73;;;19.10;56.50;;;;;;5023136;28;20038;-63
2024/02/06 01:10:44;;;;;;;1.15;0.80;;;19.10;56.50;;;;;;5022244;28;20029;-65
2024/02/06 01:13:10;;;;;;;1.45;1.20;;;19.10;56.60;;;;;;5024980;28;20130;-65
2024/02/06 01:15:35;;;;;;;1.60;0.80;;;19.00;57.20;;;;;;5022820;28;20527;-66
2024/02/06 01:18:01;;;;;;;1.00;0.80;;;19.00;56.60;;;;;;5004590;28;24594;-65
2024/02/06 01:20:26;;;;;;;1.45;0.80;;;19.00;56.70;;;;;;5001812;28;20118;-66
2024/02/06 01:22:52;;;;;;;1.30;0.70;;;19.00;56.70;;;;;;5023636;28;20171;-66
2024/02/06 01:25:17;;;;;;;1.35;0.90;;;19.00;56.70;;;;;;5022508;28;20110;-65
2024/02/06 01:27:43;;;;;;;1.45;0.93;;;19.00;56.70;;;;;;5023316;28;20037;-65
2024/02/06 01:30:09;;;;;;;1.13;0.70;;;19.00;56.70;;;;;;5020536;28;20026;-64
2024/02/06 01:32:34;;;;;;;0.80;0.65;;;19.00;56.70;;;;;;5021845;28;20030;-65
2024/02/06 01:35:00;;;;;;;1.63;0.80;;;18.90;56.70;;;;;;5022904;28;20029;-65
2024/02/06 01:37:25;;;;;;;2.53;0.80;;;18.90;56.80;;;;;;5025208;28;20477;-64
2024/02/06 01:39:51;;;;;;;2.15;0.88;;;18.90;56.90;;;;;;5021693;28;20040;-65
2024/02/06 01:42:16;;;;;;;1.05;0.80;;;18.80;56.90;;;;;;5024179;28;20111;-65
2024/02/06 01:44:42;;;;;;;2.00;0.90;;;18.80;56.80;;;;;;5021647;28;20032;-63
2024/02/06 01:47:08;;;;;;;1.55;0.75;;;18.80;56.80;;;;;;5020968;28;20331;-65
2024/02/06 01:49:35;;;;;;;1.75;0.70;;;18.80;56.90;;;;;;5022038;28;20045;-65
2024/02/06 01:52:01;;;;;;;2.45;0.77;;;18.80;56.90;;;;;;5022663;28;20400;-65
2024/02/06 01:54:26;;;;;;;1.73;1.05;;;18.90;57.50;;;;;;5024134;28;20038;-65
2024/02/06 01:56:53;;;;;;;2.70;1.27;;;18.90;56.90;;;;;;5024226;28;20506;-65
2024/02/06 01:59:19;;;;;;;2.42;1.10;;;18.90;56.90;;;;;;5014875;28;20165;-65
2024/02/06 02:01:45;;;;;;;3.22;1.17;;;18.90;56.70;;;;;;5018941;28;20124;-64
2024/02/06 02:04:12;;;;;;;2.50;0.65;;;19.00;56.60;;;;;;5027401;28;20051;-65
2024/02/06 02:06:37;;;;;;;1.70;1.00;;;19.10;56.40;;;;;;5023416;28;20037;-64
2024/02/06 02:09:03;;;;;;;1.92;0.80;;;19.20;56.10;;;;;;5021842;28;20045;-64
2024/02/06 02:11:28;;;;;;;4.13;1.48;;;19.30;55.80;;;;;;5022200;28;20100;-64
2024/02/06 02:13:54;;;;;;;1.92;1.00;;;19.50;55.50;;;;;;5022437;28;20130;-65
2024/02/06 02:16:22;;;;;;;1.45;0.85;;;19.60;55.20;;;;;;5022634;28;20029;-65
2024/02/06 02:18:47;;;;;;;3.13;1.48;;;19.70;55.00;;;;;;5021795;28;20041;-64
2024/02/06 02:21:15;;;;;;;1.13;0.80;;;19.80;54.70;;;;;;5022480;28;20477;-63
2024/02/06 02:23:42;;;;;;;1.67;1.00;;;19.90;54.50;;;;;;5023457;28;20117;-64
2024/02/06 02:26:09;;;;;;;1.30;0.70;;;20.00;54.30;;;;;;5002665;28;20053;-64
2024/02/06 02:28:41;;;;;;;1.40;1.02;;;20.20;54.10;;;;;;5024710;28;20037;-62
2024/02/06 02:31:07;;;;;;;1.83;0.77;;;20.20;53.90;;;;;;5022991;28;20657;-63
2024/02/06 02:33:33;;;;;;;0.70;0.60;;;20.20;53.80;;;;;;5022074;28;20048;-65
2024/02/06 02:35:59;;;;;;;2.13;1.00;;;20.30;53.80;;;;;;5023281;28;20037;-64
2024/02/06 02:38:24;;;;;;;1.48;0.60;;;20.30;53.80;;;;;;5025498;28;20033;-64
2024/02/06 02:40:51;;;;;;;0.95;0.77;;;20.30;53.80;;;;;;5018963;28;20088;-64
2024/02/06 02:43:17;;;;;;;1.05;0.73;;;20.30;53.80;;;;;;5023053;28;20079;-65
2024/02/06 02:45:43;;;;;;;1.05;0.70;;;20.30;53.90;;;;;;5019404;28;20040;-64
2024/02/06 02:48:09;;;;;;;2.22;0.60;;;20.30;53.90;;;;;;5020147;28;20033;-64
2024/02/06 02:50:34;;;;;;;1.27;0.70;;;20.30;54.00;;;;;;5021048;28;20049;-65
2024/02/06 02:53:00;;;;;;;3.78;0.90;;;20.20;54.10;;;;;;5019941;28;20033;-66
2024/02/06 02:55:25;;;;;;;2.15;1.13;;;20.20;54.20;;;;;;5024860;28;20041;-65
2024/02/06 02:57:51;;;;;;;1.83;0.70;;;20.10;54.30;;;;;;5016605;28;20025;-66
2024/02/06 03:00:17;;;;;;;1.45;0.70;;;20.10;54.50;;;;;;5016320;28;20042;-65
2024/02/06 03:02:42;;;;;;;1.05;0.68;;;20.00;54.50;;;;;;5004310;28;20121;-65
2024/02/06 03:05:08;;;;;;;1.33;0.73;;;20.00;54.70;;;;;;4989951;28;20036;-64
2024/02/06 03:07:34;;;;;;;1.30;0.80;;;19.90;54.70;;;;;;5004719;28;20041;-64
2024/02/06 03:10:00;;;;;;;1.48;0.93;;;19.90;55.00;;;;;;5014754;28;20088;-64
2024/02/06 03:12:31;;;;;;;2.00;0.75;;;19.80;55.10;;;;;;5017390;28;20084;-65
2024/02/06 03:14:59;;;;;;;1.63;0.60;;;19.70;55.20;;;;;;5020238;28;20056;-65
2024/02/06 03:17:25;;;;;;;2.00;1.00;;;19.70;55.20;;;;;;5018342;28;20052;-65
2024/02/06 03:19:51;;;;;;;2.03;0.90;;;19.70;55.40;;;;;;5016082;28;20545;-66
2024/02/06 03:22:16;;;;;;;1.77;1.10;;;19.60;55.40;;;;;;5015777;28;20105;-65
2024/02/06 03:24:42;;;;;;;1.90;0.80;;;19.60;55.50;;;;;;5018588;28;20694;-66
2024/02/06 03:27:07;;;;;;;2.90;0.73;;;19.50;55.50;;;;;;5001951;28;20570;-64
2024/02/06 03:29:33;;;;;;;1.85;0.90;;;19.50;55.70;;;;;;5017137;28;20120;-64
2024/02/06 03:31:58;;;;;;;1.42;0.73;;;19.50;55.70;;;;;;5017604;28;20038;-66
2024/02/06 03:34:24;;;;;;;1.83;1.10;;;19.40;55.70;;;;;;5022509;28;20029;-66
2024/02/06 03:36:49;;;;;;;1.35;0.70;;;19.40;55.80;;;;;;5018500;28;20036;-65
2024/02/06 03:39:16;;;;;;;1.58;0.73;;;19.40;56.00;;;;;;5021935;28;20488;-66
2024/02/06 03:41:41;;;;;;;2.20;1.25;;;19.30;56.00;;;;;;5002634;28;20029;-66
2024/02/06 03:44:07;;;;;;;1.58;0.85;;;19.30;56.00;;;;;;5021017;28;20161;-65
2024/02/06 03:46:32;;;;;;;1.58;0.98;;;19.30;56.10;;;;;;5018721;28;25041;-63
2024/02/06 03:48:58;;;;;;;1.75;0.80;;;19.20;56.10;;;;;;5019477;28;20461;-65
2024/02/06 03:51:24;;;;;;;1.40;0.80;;;19.20;56.20;;;;;;5023677;28;20597;-66
2024/02/06 03:53:49;;;;;;;1.27;0.73;;;19.20;56.20;;;;;;5001417;28;20528;-65
2024/02/06 03:56:18;;;;;;;1.20;0.80;;;19.20;56.30;;;;;;5020907;28;20416;-65
2024/02/06 03:58:44;;;;;;;2.85;0.80;;;19.10;56.30;;;;;;5019172;28;20041;-66
2024/02/06 04:01:09;;;;;;;2.28;0.80;;;19.10;56.30;;;;;;5015235;28;20397;-66
2024/02/06 04:03:35;;;;;;;1.90;0.75;;;19.10;56.40;;;;;;5015776;28;20412;-64
2024/02/06 04:06:00;;;;;;;1.38;0.60;;;19.10;56.40;;;;;;5017742;28;20082;-63
2024/02/06 04:08:26;;;;;;;1.30;0.70;;;19.00;56.40;;;;;;5017684;28;20993;-66
2024/02/06 04:10:52;;;;;;;2.22;0.90;;;19.10;56.40;;;;;;5018511;28;20057;-66
2024/02/06 04:13:18;;;;;;;1.10;0.82;;;19.10;56.40;;;;;;5019938;28;20113;-65
2024/02/06 04:15:43;;;;;;;1.73;0.68;;;19.00;56.40;;;;;;5020368;28;20113;-66
2024/02/06 04:18:09;;;;;;;2.47;0.88;;;19.00;57.00;;;;;;5019604;28;20033;-65
2024/02/06 04:20:34;;;;;;;1.73;1.02;;;19.00;56.40;;;;;;5018488;28;20037;-65
2024/02/06 04:23:00;;;;;;;0.98;0.73;;;19.00;56.50;;;;;;5019011;28;20156;-65
2024/02/06 04:25:27;;;;;;;2.28;1.00;;;19.00;56.50;;;;;;5019372;28;20657;-66
2024/02/06 04:27:52;;;;;;;1.60;0.80;;;19.00;56.50;;;;;;5018821;28;20095;-66
2024/02/06 04:30:18;;;;;;;1.48;0.73;;;19.00;56.60;;;;;;5017210;28;20038;-65
2024/02/06 04:32:44;;;;;;;1.42;0.80;;;19.00;56.60;;;;;;5018739;28;20292;-65
2024/02/06 04:35:09;;;;;;;1.50;0.63;;;18.90;56.50;;;;;;5016488;28;20022;-65
2024/02/06 04:37:34;;;;;;;2.80;1.05;;;18.90;56.60;;;;;;5018875;28;20037;-65
2024/02/06 04:40:00;;;;;;;1.88;1.10;;;18.90;56.60;;;;;;5017180;28;20487;-65
2024/02/06 04:42:25;;;;;;;1.00;0.65;;;18.90;56.60;;;;;;5020720;28;20097;-65
2024/02/06 04:44:51;;;;;;;1.95;1.08;;;18.90;56.50;;;;;;5018378;28;20039;-64
2024/02/06 04:47:16;;;;;;;2.33;1.02;;;18.90;56.60;;;;;;5023736;28;20025;-65
2024/02/06 04:49:42;;;;;;;0.90;0.70;;;18.90;56.60;;;;;;5018338;28;20064;-65
2024/02/06 04:52:07;;;;;;;1.48;0.73;;;18.80;56.60;;;;;;5022288;28;20544;-65
2024/02/06 04:54:33;;;;;;;1.85;1.00;;;18.90;56.60;;;;;;5017579;28;20029;-65
2024/02/06 04:56:58;;;;;;;1.05;0.68;;;18.90;56.50;;;;;;5020460;28;20159;-65
2024/02/06 04:59:24;;;;;;;1.73;1.00;;;19.00;56.40;;;;;;5016920;28;20408;-64
2024/02/06 05:01:49;;;;;;;1.20;0.77;;;19.00;56.20;;;;;;5005531;28;20087;-63
2024/02/06 05:04:15;;;;;;;1.42;1.05;;;19.10;56.00;;;;;;5017457;28;20034;-63
2024/02/06 05:06:41;;;;;;;1.10;0.80;;;19.20;55.90;;;;;;5021963;28;20027;-63
2024/02/06 05:09:06;;;;;;;1.20;0.90;;;19.30;55.70;;;;;;5017216;28;20060;-64
2024/02/06 05:11:32;;;;;;;1.40;0.80;;;19.40;55.50;;;;;;5003689;28;20022;-64
2024/02/06 05:13:57;;;;;;;0.98;0.65;;;19.40;55.20;;;;;;5019719;28;20672;-63
2024/02/06 05:16:23;;;;;;;1.17;0.80;;;19.50;55.10;;;;;;5021492;28;20156;-63
2024/02/06 05:18:48;;;;;;;2.80;0.88;;;19.60;54.90;;;;;;5016477;28;20053;-64
2024/02/06 05:21:15;;;;;;;2.17;0.60;;;19.70;54.70;;;;;;5020582;28;20029;-64
2024/02/06 05:23:41;;;;;;;1.77;0.90;;;19.70;54.50;;;;;;5018919;28;20068;-63
2024/02/06 05:26:06;;;;;;;2.08;0.93;;;19.80;54.40;;;;;;5021457;28;20508;-63
2024/02/06 05:28:32;;;;;;;1.55;0.80;;;19.90;54.30;;;;;;5017298;28;20033;-64
2024/02/06 05:30:57;;;;;;;2.25;0.82;;;20.00;54.20;;;;;;5020654;28;20033;-64
2024/02/06 05:33:23;;;;;;;1.88;0.80;;;20.00;54.10;;;;;;5017984;28;20191;-65
2024/02/06 05:35:48;;;;;;;0.73;0.70;;;20.10;54.00;;;;;;5018992;28;20057;-64
2024/02/06 05:38:15;;;;;;;0.88;0.68;;;20.10;53.80;;;;;;5018901;28;20060;-65
2024/02/06 05:40:40;;;;;;;1.10;0.60;;;20.20;53.80;;;;;;5020746;28;20032;-65
2024/02/06 05:43:06;;;;;;;1.42;0.88;;;20.20;53.80;;;;;;5019490;28;20029;-67
2024/02/06 05:45:32;;;;;;;2.28;0.82;;;20.20;53.70;;;;;;5020788;28;20513;-64
2024/02/06 05:47:59;;;;;;;1.40;0.90;;;20.20;53.80;;;;;;5019460;28;20081;-64
2024/02/06 05:50:25;;;;;;;1.10;0.70;;;20.10;53.90;;;;;;5026320;28;20075;-65
2024/02/06 05:52:50;;;;;;;3.03;0.80;;;20.10;54.00;;;;;;5023973;28;20026;-64
2024/02/06 05:55:16;;;;;;;1.80;0.93;;;20.10;54.10;;;;;;5019093;28;20052;-65
2024/02/06 05:57:41;;;;;;;1.52;0.88;;;20.00;54.20;;;;;;5022799;28;20435;-66
2024/02/06 06:00:07;;;;;;;1.25;0.73;;;20.00;54.30;;;;;;5016810;28;20033;-65
2024/02/06 06:02:33;;;;;;;2.15;0.90;;;19.90;54.40;;;;;;5024605;28;20040;-66
2024/02/06 06:04:59;;;;;;;0.70;0.60;;;19.90;54.60;;;;;;5023305;28;20563;-66
2024/02/06 06:07:24;;;;;;;2.08;1.13;;;19.80;54.80;;;;;;5024408;28;20172;-66
2024/02/06 06:09:50;;;;;;;1.27;0.70;;;19.80;54.90;;;;;;5021768;28;20076;-66
2024/02/06 06:12:15;;;;;;;1.92;1.15;;;19.70;55.00;;;;;;5023769;28;20030;-66
2024/02/06 06:14:41;;;;;;;1.38;0.88;;;19.70;55.10;;;;;;5024175;28;20029;-66
2024/02/06 06:17:07;;;;;;;2.55;0.50;;;19.60;55.10;;;;;;5002358;28;20029;-67
2024/02/06 06:19:33;;;;;;;1.00;0.70;;;19.60;55.30;;;;;;5016224;28;20022;-64
2024/02/06 06:22:02;;;;;;;1.00;0.70;;;19.50;55.30;;;;;;5017376;28;20098;-63
2024/02/06 06:24:28;;;;;;;1.67;1.15;;;19.50;55.40;;;;;;4993634;28;20488;-64
2024/02/06 06:26:53;;;;;;;1.50;0.80;;;19.40;55.40;;;;;;5019001;28;20035;-66
2024/02/06 06:29:19;;;;;;;1.10;0.80;;;19.40;55.50;;;;;;5015903;28;20044;-65
2024/02/06 06:31:44;;;;;;;1.88;0.90;;;19.40;55.60;;;;;;5021217;28;20113;-66
2024/02/06 06:34:10;;;;;;;1.92;0.88;;;19.40;55.70;;;;;;5020812;28;21437;-65
2024/02/06 06:36:35;;;;;;;1.38;0.80;;;19.30;55.70;;;;;;5019745;28;20026;-67
2024/02/06 06:39:00;;;;;;;1.33;0.73;;;19.30;55.70;;;;;;5019739;28;20509;-66
2024/02/06 06:41:26;;;;;;;4.82;1.15;;;19.30;55.80;;;;;;5017774;28;20033;-66
2024/02/06 06:43:52;;;;;;;2.15;0.90;;;19.20;55.90;;;;;;5019174;28;20033;-65
2024/02/06 06:46:17;;;;;;;2.35;0.80;;;19.20;55.90;;;;;;5021490;28;20396;-67
2024/02/06 06:48:43;;;;;;;1.98;0.50;;;19.20;56.00;;;;;;5017591;28;20075;-66
2024/02/06 06:51:08;;;;;;;1.17;0.75;;;19.10;56.00;;;;;;5020374;28;20562;-66
2024/02/06 06:53:34;;;;;;;1.65;0.77;;;19.10;56.00;;;;;;5002350;28;20028;-67
2024/02/06 06:55:59;;;;;;;1.15;0.80;;;19.10;56.10;;;;;;5023406;28;20041;-65
2024/02/06 06:58:25;;;;;;;1.25;0.90;;;19.10;56.10;;;;;;5020596;28;20392;-67
2024/02/06 07:00:50;;;;;;;0.88;0.60;;;19.00;56.10;;;;;;5021039;28;20033;-65
2024/02/06 07:03:16;;;;;;;0.60;0.60;;;19.00;56.10;;;;;;5024795;28;20087;-67
2024/02/06 07:05:42;;;;;;;1.52;0.70;;;19.00;56.20;;;;;;5020388;28;20089;-66
2024/02/06 07:08:08;;;;;;;1.98;0.90;;;19.00;56.20;;;;;;5022197;28;20037;-66
2024/02/06 07:10:33;;;;;;;1.38;0.95;;;19.00;56.20;;;;;;5003971;28;20112;-66
2024/02/06 07:12:59;;;;;;;0.98;0.90;;;19.00;56.20;;;;;;5019316;28;20109;-66
2024/02/06 07:15:25;;;;;;;1.95;0.82;;;19.00;56.20;;;;;;5020218;28;20096;-66
2024/02/06 07:17:50;;;;;;;2.00;1.00;;;19.00;56.30;;;;;;5022602;28;20034;-65
2024/02/06 07:20:16;;;;;;;1.10;0.63;;;18.90;56.30;;;;;;5021467;28;20041;-66
2024/02/06 07:22:41;;;;;;;1.38;0.70;;;18.90;56.30;;;;;;5021557;28;20266;-65
2024/02/06 07:25:07;;;;;;;0.90;0.65;;;18.90;56.40;;;;;;5021351;28;20094;-65
2024/02/06 07:27:33;;;;;;;1.77;1.10;;;18.90;56.30;;;;;;5013342;28;20030;-65
2024/02/06 07:30:02;;;;;;;2.00;0.93;;;18.90;56.40;;;;;;5006878;28;20386;-65
2024/02/06 07:32:27;;;;;;;1.35;0.90;;;18.90;56.40;;;;;;5001368;28;20033;-65
2024/02/06 07:34:53;;;;;;;2.55;1.00;;;18.90;56.50;;;;;;5022712;28;20033;-64
2024/02/06 07:37:18;;;;;;;3.40;1.38;;;18.80;56.50;;;;;;5016668;28;20484;-65
2024/02/06 07:39:44;;;;;;;2.08;0.90;;;18.80;56.60;;;;;;5021491;28;20041;-65
2024/02/06 07:42:09;;;;;;;3.20;1.42;;;18.80;56.60;;;;;;5021517;28;20025;-64
2024/02/06 07:44:35;;;;;;;4.45;1.55;;;18.80;56.80;;;;;;5017732;28;20517;-64
2024/02/06 07:47:00;;;;;;;4.53;1.30;;;18.80;56.90;;;;;;5013866;28;20017;-65
2024/02/06 07:49:26;;;;;;;2.17;1.23;;;18.80;57.00;;;;;;5019081;28;20060;-65
2024/02/06 07:51:51;;;;;;;2.03;1.00;;;18.70;56.70;;;;;;5017973;28;20415;-65
2024/02/06 07:54:17;;;;;;;3.28;1.33;;;18.70;56.80;;;;;;5013460;28;20068;-65
2024/02/06 07:56:42;;;;;;;3.95;1.23;;;18.80;57.10;;;;;;5022523;28;20025;-65
2024/02/06 07:59:11;;;;;;;6.45;1.25;;;18.80;57.20;;;;;;5023084;28;20040;-64
2024/02/06 08:01:38;;;;;;;4.43;1.30;;;18.70;56.90;;;;;;5012537;28;20060;-65
2024/02/06 08:04:03;;;;;;;2.60;1.00;;;18.70;57.10;;;;;;5022043;28;20041;-65
2024/02/06 08:06:29;;;;;;;1.73;1.05;;;18.70;57.10;;;;;;5017152;28;20041;-65
2024/02/06 08:08:54;;;;;;;1.80;1.30;;;18.70;57.10;;;;;;5021341;28;20041;-65
2024/02/06 08:11:22;;;;;;;4.28;1.25;;;18.70;57.10;;;;;;5019208;28;20092;-66
2024/02/06 08:13:48;;;;;;;4.40;1.10;;;18.70;57.00;;;;;;5027243;28;20024;-66
2024/02/06 08:16:15;;;;;;;5.20;1.83;;;18.70;56.80;;;;;;4997630;28;20049;-65
2024/02/06 08:18:41;;;;;;;3.88;1.20;;;18.80;56.70;;;;;;5021831;28;20082;-65
2024/02/06 08:21:06;;;;;;;3.65;1.38;;;18.90;56.50;;;;;;4984734;28;20443;-66
2024/02/06 08:23:32;;;;;;;2.00;1.23;;;19.10;56.10;;;;;;5018673;28;20041;-66
2024/02/06 08:25:57;;;;;;;1.70;0.70;;;19.20;55.70;;;;;;5002291;28;20066;-65
2024/02/06 08:28:23;;;;;;;5.93;1.38;;;19.40;55.30;;;;;;5018482;28;20041;-65
2024/02/06 08:30:50;;;;;;;2.13;0.93;;;19.60;54.90;;;;;;5016893;28;20055;-65
2024/02/06 08:33:16;;;;;;;1.50;0.68;;;19.70;54.50;;;;;;5016434;28;20030;-66
2024/02/06 08:35:41;;;;;;;2.85;1.10;;;19.90;54.30;;;;;;5015118;28;20551;-65
2024/02/06 08:38:07;;;;;;;2.03;0.93;;;20.00;54.00;;;;;;5017564;28;20030;-65
2024/02/06 08:40:33;;;;;;;2.50;0.70;;;20.20;53.80;;;;;;5017922;28;20029;-66
2024/02/06 08:42:58;;;;;;;3.08;0.88;;;20.30;53.50;;;;;;5002028;28;20559;-66
2024/02/06 08:45:24;;;;;;;1.85;0.70;;;20.40;53.30;;;;;;4997773;28;20035;-65
2024/02/06 08:47:49;;;;;;;4.97;1.25;;;20.50;53.20;;;;;;5018169;28;20099;-65
2024/02/06 08:50:15;;;;;;;2.05;0.82;;;20.60;53.20;;;;;;4999621;28;20040;-66
2024/02/06 08:52:41;;;;;;;4.03;1.10;;;20.60;53.10;;;;;;5000836;28;20057;-66
2024/02/06 08:55:08;;;;;;;1.42;0.90;;;20.60;53.10;;;;;;5019034;28;20633;-66
2024/02/06 08:57:33;;;;;;;2.72;1.40;;;20.60;53.00;;;;;;5012882;28;20392;-66
2024/02/06 08:59:59;;;;;;;1.90;0.70;;;20.60;53.00;;;;;;5006980;28;20130;-67
2024/02/06 09:02:26;;;;;;;3.30;1.00;;;20.60;53.10;;;;;;4995948;28;20034;-66
2024/02/06 09:04:53;;;;;;;3.63;0.93;;;20.50;53.10;;;;;;5000393;28;20494;-66
2024/02/06 09:07:18;;;;;;;1.77;0.90;;;20.60;53.30;;;;;;5012906;28;20033;-66
2024/02/06 09:09:44;;;;;;;1.05;0.95;;;20.50;53.40;;;;;;4997983;28;20508;-65
2024/02/06 09:12:09;;;;;;;3.33;0.75;;;20.40;53.50;;;;;;4979177;28;20037;-65
2024/02/06 09:14:35;;;;;;;2.47;0.95;;;20.40;53.60;;;;;;5014250;28;20038;-66
2024/02/06 09:17:03;;;;;;;1.88;0.93;;;20.30;53.80;;;;;;4997597;28;20288;-66
2024/02/06 09:19:29;;;;;;;1.00;0.80;;;20.20;53.90;;;;;;5012393;28;20190;-65
2024/02/06 09:21:54;;;;;;;5.68;0.93;;;20.20;54.10;;;;;;5013851;28;20040;-66
2024/02/06 09:24:20;;;;;;;0.77;0.65;;;20.10;54.20;;;;;;4993614;28;20037;-66
2024/02/06 09:26:45;;;;;;;2.45;1.00;;;20.00;54.30;;;;;;4985283;28;20047;-65
2024/02/06 09:29:11;;;;;;;1.42;0.73;;;20.00;54.50;;;;;;5019235;28;20124;-66
2024/02/06 09:31:38;;;;;;;1.40;0.95;;;19.90;54.60;;;;;;4983663;28;20133;-66
2024/02/06 09:34:04;;;;;;;1.98;0.80;;;19.90;54.70;;;;;;5017871;28;20489;-66
2024/02/06 09:36:30;;;;;;;2.72;0.70;;;19.80;54.80;;;;;;5001908;28;20083;-66
2024/02/06 09:38:56;;;;;;;3.53;0.85;;;19.70;54.90;;;;;;4999343;28;20045;-66
2024/02/06 09:41:22;;;;;;;0.95;0.73;;;19.70;55.00;;;;;;5019648;28;20436;-66
2024/02/06 09:43:47;;;;;;;2.00;0.88;;;19.70;55.10;;;;;;4998806;28;20327;-66
2024/02/06 09:46:13;;;;;;;2.28;0.80;;;19.60;55.10;;;;;;5016393;28;20137;-66
2024/02/06 09:48:38;;;;;;;1.17;0.85;;;19.60;55.20;;;;;;4994087;28;20038;-65
2024/02/06 09:51:04;;;;;;;2.20;1.00;;;19.60;55.30;;;;;;4998341;28;20129;-66
2024/02/06 09:53:32;;;;;;;2.13;0.80;;;19.50;55.30;;;;;;5015627;28;20088;-66
2024/02/06 09:55:59;;;;;;;2.47;0.60;;;19.50;55.40;;;;;;5000877;28;20037;-66
2024/02/06 09:58:25;;;;;;;1.85;0.80;;;19.40;55.50;;;;;;4984222;28;20045;-66
2024/02/06 10:00:53;;;;;;;1.77;1.05;;;19.40;55.60;;;;;;4999824;28;20049;-67
2024/02/06 10:03:32;;;;;;;1.23;0.50;;;19.40;55.70;;;;;;5017415;28;20029;-66
2024/02/06 10:06:03;;;;;;;1.30;0.80;;;19.30;55.70;;;;;;5016296;28;20420;-66
2024/02/06 10:08:28;;;;;;;1.52;0.65;;;19.30;55.80;;;;;;5002305;28;20056;-68
2024/02/06 10:10:56;;;;;;;3.13;0.73;;;19.30;55.90;;;;;;4997648;28;20037;-67
2024/02/06 10:13:22;;;;;;;2.88;0.93;;;19.20;55.90;;;;;;4997256;28;20033;-66
2024/02/06 10:15:48;;;;;;;1.50;0.85;;;19.20;55.90;;;;;;5017078;28;20032;-65
2024/02/06 10:18:14;;;;;;;0.95;0.70;;;19.20;56.00;;;;;;4995859;28;20026;-65
2024/02/06 10:20:46;;;;;;;1.30;0.75;;;19.10;56.00;;;;;;4997546;28;20404;-65
2024/02/06 10:23:17;;;;;;;1.27;0.70;;;19.10;56.10;;;;;;4996296;28;20048;-64
2024/02/06 10:25:43;;;;;;;1.25;0.80;;;19.10;56.10;;;;;;5017881;28;20170;-66
2024/02/06 10:28:09;;;;;;;1.73;0.85;;;19.10;56.20;;;;;;5010436;28;20810;-64
2024/02/06 10:30:35;;;;;;;1.25;0.60;;;19.00;56.20;;;;;;5016363;28;20113;-65
2024/02/06 10:33:14;;;;;;;1.58;0.77;;;19.00;56.20;;;;;;5014993;28;20045;-65
2024/02/06 10:35:40;;;;;;;1.20;0.60;;;19.00;56.20;;;;;;4949959;28;20509;-65
2024/02/06 10:38:16;;;;;;;1.55;0.70;;;19.00;56.30;;;;;;5015231;28;20061;-65
2024/02/06 10:40:43;;;;;;;0.88;0.60;;;19.00;56.30;;;;;;5014985;28;20041;-64
2024/02/06 10:43:10;;;;;;;0.85;0.57;;;19.00;56.30;;;;;;5014310;28;20108;-65
2024/02/06 10:45:35;;;;;;;0.90;0.70;;;19.00;56.30;;;;;;5015265;28;20111;-65
2024/02/06 10:48:03;;;;;;;2.05;0.70;;;19.00;56.30;;;;;;5017536;28;20466;-64
2024/02/06 10:50:29;;;;;;;1.90;0.50;;;19.00;56.30;;;;;;5016772;28;20034;-65
2024/02/06 10:52:55;;;;;;;5.78;0.85;;;19.00;56.20;;;;;;5013994;28;20041;-65
2024/02/06 10:55:22;;;;;;;2.00;0.70;;;19.10;56.30;;;;;;5018235;28;20030;-65
2024/02/06 10:57:48;;;;;;;1.65;0.75;;;19.20;55.90;;;;;;5016482;28;20033;-65
2024/02/06 11:00:20;;;;;;;1.38;0.70;;;19.30;55.60;;;;;;5017295;28;20076;-66
2024/02/06 11:02:52;;;;;;;3.30;0.70;;;19.40;55.30;;;;;;5016319;28;20033;-65
2024/02/06 11:05:37;;;;;;;0.98;0.50;;;19.60;55.10;;;;;;5018288;28;20044;-66
2024/02/06 11:08:15;;;;;;;1.58;0.70;;;19.70;54.70;;;;;;5016094;28;20062;-64
2024/02/06 11:10:43;;;;;;;0.82;0.55;;;19.90;54.30;;;;;;5015535;28;20117;-65
2024/02/06 11:13:19;;;;;;;1.27;0.73;;;20.00;54.10;;;;;;5015185;28;20102;-65
2024/02/06 11:15:46;;;;;;;1.08;0.52;;;20.10;53.80;;;;;;5016777;28;20116;-65
2024/02/06 11:18:13;;;;;;;2.40;0.70;;;20.20;53.60;;;;;;5015998;28;20040;-65
2024/02/06 11:20:46;;;;;;;0.77;0.50;;;20.30;53.40;;;;;;5019033;28;20604;-66
2024/02/06 11:23:18;;;;;;;4.18;0.70;;;20.40;53.30;;;;;;5018891;28;20108;-65
2024/02/06 11:25:46;;;;;;;2.15;0.50;;;20.50;53.30;;;;;;5017840;28;20045;-65
2024/02/06 11:28:14;;;;;;;0.75;0.70;;;20.50;53.10;;;;;;5017398;28;20041;-64
2024/02/06 11:30:40;;;;;;;2.22;0.70;;;20.50;53.10;;;;;;5020798;28;20038;-64
2024/02/06 11:33:08;;;;;;;0.93;0.60;;;20.50;53.10;;;;;;5023050;28;20449;-64
2024/02/06 11:35:35;;;;;;;1.05;0.63;;;20.50;53.30;;;;;;5023949;28;20560;-65
2024/02/06 11:38:04;;;;;;;1.10;0.85;;;20.40;53.30;;;;;;5023356;28;20057;-64
2024/02/06 11:40:31;;;;;;;1.02;0.70;;;20.40;53.40;;;;;;5022202;28;20301;-65
2024/02/06 11:43:07;;;;;;;1.08;0.50;;;20.40;53.50;;;;;;5019934;28;20068;-64
2024/02/06 11:45:34;;;;;;;0.82;0.50;;;20.30;53.60;;;;;;5022322;28;20029;-64
2024/02/06 11:48:02;;;;;;;1.25;0.43;;;20.20;53.80;;;;;;5017852;28;20051;-63
2024/02/06 11:50:31;;;;;;;1.35;0.50;;;20.20;53.90;;;;;;5017834;28;20029;-65
2024/02/06 11:53:01;;;;;;;1.75;0.43;;;20.10;54.10;;;;;;5017757;28;20038;-65
2024/02/06 11:55:26;;;;;;;0.50;0.47;;;20.00;54.20;;;;;;5019375;28;20120;-64
2024/02/06 11:57:52;;;;;;;1.27;0.50;;;20.00;54.30;;;;;;5021279;28;20556;-66
2024/02/06 12:00:17;;;;;;;1.13;0.50;;;19.90;54.50;;;;;;5020710;28;20171;-65
2024/02/06 12:02:49;;;;;;;1.25;0.65;;;19.90;54.60;;;;;;5021658;28;20209;-65
2024/02/06 12:05:15;;;;;;;0.52;0.43;;;19.80;54.70;;;;;;5021921;28;20157;-66
2024/02/06 12:07:57;;;;;;;2.33;0.70;;;19.70;54.70;;;;;;5022372;28;20605;-66
2024/02/06 12:10:30;;;;;;;0.60;0.40;;;19.70;54.90;;;;;;5019779;28;20033;-65
2024/02/06 12:13:04;;;;;;;0.82;0.32;;;19.70;55.00;;;;;;5019105;28;20115;-65
2024/02/06 12:15:37;;;;;;;1.35;0.63;;;19.60;55.10;;;;;;5020428;28;20283;-66
2024/02/06 12:18:06;;;;;;;0.50;0.45;;;19.50;55.70;;;;;;5001746;28;20117;-65
2024/02/06 12:20:33;;;;;;;1.45;0.50;;;19.50;55.20;;;;;;5016929;28;20466;-67
2024/02/06 12:23:03;;;;;;;0.73;0.40;;;19.50;55.30;;;;;;5020081;28;20396;-65
2024/02/06 12:25:34;;;;;;;0.88;0.57;;;19.40;55.30;;;;;;5017583;28;20041;-66
2024/02/06 12:28:08;;;;;;;0.98;0.40;;;19.40;55.40;;;;;;5021162;28;20048;-65
2024/02/06 12:30:34;;;;;;;0.90;0.52;;;19.40;55.50;;;;;;5017519;28;20062;-65
2024/02/06 12:33:01;;;;;;;0.80;0.60;;;19.40;55.60;;;;;;5017002;28;20049;-65
2024/02/06 12:35:30;;;;;;;1.08;0.60;;;19.30;55.60;;;;;;5019105;28;20030;-65
2024/02/06 12:38:00;;;;;;;1.30;0.60;;;19.30;55.70;;;;;;5020818;28;20034;-66
2024/02/06 12:40:30;;;;;;;2.28;0.60;;;19.20;55.70;;;;;;5019518;28;20037;-65
2024/02/06 12:42:59;;;;;;;0.77;0.43;;;19.20;55.70;;;;;;5019310;28;20041;-66